Latest Coastal Weather Observations for Robe Airport

IDV60701

Issued at 3:45 pm EST Friday 22 August 2014 (issued every 10 minutes, with the page automatically refreshed every 10 minutes)

About coastal observations | Map of coastal stations | Coastal observations for VIC | Marine services | Other Formats
Station Details ID: 026105 Name: ROBE AIRFIELD Lat: -37.18 Lon: 139.81 Height: 3.0 m
Data from the previous 72 hours. | See also: Recent months at Robe Airport
Date/Time
EST
Temp

°C
Wind Pressure Rain
since 9am
mm
Weather Cloud Vis
km
Sea
Height
m
Swell
Dir
 
Speed
knots
Gust
knots
hPa Trend Height
m
Period
s
Dir
22/03:30pm 20.0 N 11 16 1023.9 - 0.0 - - - - - - -
22/03:00pm 19.0 N 10 16 1024.2 - 0.0 - - - - - - -
22/02:30pm 17.8 N 12 15 1024.6 - 0.0 - - - - - - -
22/02:00pm 19.7 N 14 19 1024.8 - 0.0 - - - - - - -
22/01:30pm 19.7 N 14 22 1025.2 - 0.0 - - - - - - -
22/01:00pm 19.3 N 18 24 1025.6 - 0.0 - - - - - - -
22/12:30pm 19.2 N 17 25 1026.0 - 0.0 - - - - - - -
22/12:00pm 18.9 N 16 21 1026.4 - 0.0 - - - - - - -
22/11:30am 18.7 N 16 21 1026.6 - 0.0 - - - - - - -
22/11:00am 16.2 N 13 16 1026.9 - 0.0 - - - - - - -
22/10:30am 13.7 N 9 13 1027.1 - 0.0 - - - - - - -
22/10:00am 12.3 NNE 9 13 1027.3 - 0.0 - - - - - - -
22/09:30am 11.7 NNE 12 18 1027.4 - 0.2 - - - - - - -
22/09:00am 10.7 NNE 6 9 1027.4 - 0.2 - - - - - - -
22/08:30am 9.5 NE 9 12 1027.3 - 0.2 - - - - - - -
22/08:00am 8.5 NE 8 11 1026.9 - 0.2 - - - - - - -
22/07:30am 8.1 NE 7 9 1026.5 - 0.2 - - - - - - -
22/07:00am 7.9 NE 6 8 1026.4 - 0.2 - - - - - - -
22/06:30am 7.5 NE 7 9 1026.2 - 0.2 - - - - - - -
22/06:00am 7.1 NE 5 7 1026.1 - 0.2 - - - - - - -
22/05:30am 6.9 NE 6 8 1026.0 - 0.2 - - - - - - -
22/05:00am 6.7 NE 7 8 1026.0 - 0.2 - - - - - - -
22/04:30am 6.6 NE 7 9 1025.9 - 0.2 - - - - - - -
22/04:00am 6.2 NE 6 8 1026.0 - 0.2 - - - - - - -
22/03:30am 5.4 NE 6 8 1026.0 - 0.2 - - - - - - -
22/03:00am 4.8 NE 5 6 1026.4 - 0.2 - - - - - - -
22/02:30am 4.6 NE 4 5 1026.6 - 0.2 - - - - - - -
22/02:00am 5.7 NE 6 7 1026.9 - 0.2 - - - - - - -
22/01:30am 5.5 NE 5 6 1027.0 - 0.2 - - - - - - -
22/01:00am 4.8 NE 6 7 1026.9 - 0.2 - - - - - - -
22/12:30am 4.0 NE 5 6 1027.0 - 0.2 - - - - - - -
22/12:00am 4.4 NE 3 4 1027.1 - 0.2 - - - - - - -
 
Date/Time
EST
Temp

°C
Wind Pressure Rain
since 9am
mm
Weather Cloud Vis
km
Sea
Height
m
Swell
Dir
 
Speed
knots
Gust
knots
hPa Trend Height
m
Period
s
Dir
21/11:30pm 4.3 NE 3 4 1027.1 - 0.2 - - - - - - -
21/11:00pm 4.2 NE 4 5 1027.3 - 0.2 - - - - - - -
21/10:30pm 4.2 SSE 3 4 1027.3 - 0.2 - - - - - - -
21/10:00pm 3.0 SSE 2 3 1027.2 - 0.2 - - - - - - -
21/09:30pm 3.7 CALM 0 1 1027.3 - 0.2 - - - - - - -
21/09:00pm 3.6 SSE 1 2 1027.1 - 0.2 - - - - - - -
21/08:30pm 4.4 SSE 2 2 1027.2 - 0.2 - - - - - - -
21/08:00pm 5.2 SSE 1 2 1027.1 - 0.2 - - - - - - -
21/07:30pm 6.5 SSE 2 3 1027.0 - 0.2 - - - - - - -
21/07:00pm 7.6 SSE 4 4 1026.8 - 0.2 - - - - - - -
21/06:30pm 9.1 SSE 4 5 1026.5 - 0.2 - - - - - - -
21/06:00pm 10.7 SSE 4 5 1026.4 - 0.2 - - - - - - -
21/05:30pm 12.3 S 3 4 1026.1 - 0.2 - - - - - - -
21/05:00pm 12.9 SSW 3 4 1026.0 - 0.2 - - - - - - -
21/04:30pm 13.8 SW 3 4 1026.0 - 0.2 - - - - - - -
21/04:00pm 14.1 NNW 2 4 1025.9 - 0.2 - - - - - - -
21/03:30pm 14.4 NNW 4 6 1025.9 - 0.2 - - - - - - -
21/03:00pm 14.7 NNW 3 8 1025.9 - 0.2 - - - - - - -
21/02:30pm 14.0 E 3 4 1026.0 - 0.2 - - - - - - -
21/02:00pm 13.1 ENE 2 6 1026.2 - 0.0 - - - - - - -
21/01:30pm 14.4 NNW 5 9 1026.7 - 0.0 - - - - - - -
21/01:00pm 14.1 WNW 5 7 1027.1 - 0.0 - - - - - - -
21/12:30pm 12.7 NW 3 6 1027.6 - 0.0 - - - - - - -
21/12:00pm 12.8 NE 6 9 1028.0 - 0.0 - - - - - - -
21/11:30am 12.5 NNE 3 6 1028.3 - 0.0 - - - - - - -
21/11:00am 12.8 NNE 4 7 1028.5 - 0.0 - - - - - - -
21/10:30am 12.1 NE 4 6 1028.6 - 0.0 - - - - - - -
21/10:00am 12.0 ENE 2 4 1028.7 - 0.0 - - - - - - -
21/09:30am 10.6 ENE 3 4 1028.9 - 0.0 - - - - - - -
21/09:00am 8.7 CALM 0 3 1028.7 - 0.0 - - - - - - -
21/08:30am 7.3 CALM 0 0 1028.7 - 0.0 - - - - - - -
21/08:00am 6.6 CALM 0 0 1028.7 - 0.0 - - - - - - -
21/07:30am 6.3 S 1 2 1028.5 - 0.0 - - - - - - -
21/07:00am 6.2 CALM 0 0 1028.3 - 0.0 - - - - - - -
21/06:30am 5.8 CALM 0 0 1028.0 - 0.0 - - - - - - -
21/06:00am 5.8 CALM 0 0 1027.9 - 0.0 - - - - - - -
21/05:30am 5.7 CALM 0 0 1027.8 - 0.0 - - - - - - -
21/05:00am 5.5 CALM 0 0 1027.8 - 0.0 - - - - - - -
21/04:30am 5.4 ESE 1 2 1027.8 - 0.0 - - - - - - -
21/04:00am 4.9 ESE 3 4 1027.8 - 0.0 - - - - - - -
21/03:30am 3.4 ESE 2 3 1027.9 - 0.0 - - - - - - -
21/03:00am 2.5 CALM 0 0 1028.0 - 0.0 - - - - - - -
21/02:30am 4.3 CALM 0 0 1028.2 - 0.0 - - - - - - -
21/02:00am 4.0 CALM 0 0 1028.1 - 0.0 - - - - - - -
21/01:30am 4.8 CALM 0 0 1028.3 - 0.0 - - - - - - -
21/01:00am 5.3 SE 3 5 1028.3 - 0.0 - - - - - - -
21/12:30am 5.3 SE 2 4 1028.4 - 0.0 - - - - - - -
21/12:00am 5.5 SE 3 4 1028.4 - 0.0 - - - - - - -
 
Date/Time
EST
Temp

°C
Wind Pressure Rain
since 9am
mm
Weather Cloud Vis
km
Sea
Height
m
Swell
Dir
 
Speed
knots
Gust
knots
hPa Trend Height
m
Period
s
Dir
20/11:30pm 6.0 SSE 3 4 1028.5 - 0.0 - - - - - - -
20/11:00pm 6.7 SE 4 5 1028.6 - 0.0 - - - - - - -
20/10:30pm 6.6 SSE 3 4 1028.7 - 0.0 - - - - - - -
20/10:00pm 6.6 SE 3 4 1028.5 - 0.0 - - - - - - -
20/09:30pm 6.4 S 2 2 1028.4 - 0.0 - - - - - - -
20/09:00pm 7.2 S 3 4 1028.3 - 0.0 - - - - - - -
20/08:30pm 8.2 SE 3 5 1028.2 - 0.0 - - - - - - -
20/08:00pm 8.6 SSE 4 6 1028.1 - 0.0 - - - - - - -
20/07:30pm 9.0 SSE 4 5 1028.1 - 0.0 - - - - - - -
20/07:00pm 10.3 S 4 5 1028.1 - 0.0 - - - - - - -
20/06:30pm 10.7 S 4 5 1028.0 - 0.0 - - - - - - -
20/06:00pm 10.9 S 4 6 1027.9 - 0.0 - - - - - - -
20/05:30pm 11.6 SSE 7 10 1027.9 - 0.0 - - - - - - -
20/05:00pm 11.7 S 8 10 1027.9 - 0.0 - - - - - - -
20/04:30pm 11.9 S 9 11 1027.8 - 0.0 - - - - - - -
20/04:00pm 12.2 S 8 11 1027.7 - 0.0 - - - - - - -
20/03:30pm 12.6 S 7 10 1027.6 - 0.0 - - - - - - -
20/03:00pm 12.6 S 8 10 1027.6 - 0.0 - - - - - - -
20/02:30pm 13.4 SSE 3 6 1027.6 - 0.0 - - - - - - -
20/02:00pm 13.3 S 4 9 1027.5 - 0.0 - - - - - - -
20/01:30pm 13.2 S 4 7 1027.6 - 0.0 - - - - - - -
20/01:00pm 13.0 ESE 4 6 1028.0 - 0.0 - - - - - - -
20/12:30pm 12.9 E 3 6 1028.3 - 0.0 - - - - - - -
20/12:00pm 12.5 ESE 3 6 1028.7 - 0.0 - - - - - - -
20/11:30am 12.5 E 4 5 1028.9 - 0.0 - - - - - - -
20/11:00am 12.3 ESE 3 5 1028.9 - 0.0 - - - - - - -
20/10:30am 11.9 E 4 6 1028.8 - 0.0 - - - - - - -
20/10:00am 11.4 E 4 5 1028.8 - 0.0 - - - - - - -
20/09:30am 10.9 E 3 5 1028.6 - 0.4 - - - - - - -
20/09:00am 10.2 ENE 4 5 1028.5 - 0.4 - - - - - - -
20/08:30am 9.5 S 1 2 1028.1 - 0.4 - - - - - - -
20/08:00am 9.1 SE 2 4 1027.9 - 0.4 - - - - - - -
20/07:30am 8.8 CALM 0 0 1027.6 - 0.4 - - - - - - -
20/07:00am 8.8 E 2 4 1027.2 - 0.4 - - - - - - -
20/06:30am 8.7 CALM 0 0 1027.1 - 0.4 - - - - - - -
20/06:00am 9.0 E 4 5 1026.9 - 0.4 - - - - - - -
20/05:30am 8.9 ESE 2 3 1027.0 - 0.4 - - - - - - -
20/05:00am 8.6 SE 2 2 1026.8 - 0.4 - - - - - - -
20/04:30am 8.7 SE 2 3 1027.0 - 0.4 - - - - - - -
20/04:00am 8.7 SSW 2 3 1026.8 - 0.4 - - - - - - -
20/03:30am 8.8 SW 3 4 1026.9 - 0.4 - - - - - - -
20/03:00am 8.8 SE 2 2 1027.0 - 0.4 - - - - - - -
20/02:30am 8.8 SE 1 2 1027.2 - 0.4 - - - - - - -
20/02:00am 8.7 SE 2 3 1027.1 - 0.4 - - - - - - -
20/01:30am 9.1 SE 3 3 1027.2 - 0.4 - - - - - - -
20/01:00am 9.1 SE 4 5 1027.4 - 0.2 - - - - - - -
20/12:30am 9.4 SSE 3 5 1027.5 - 0.2 - - - - - - -
20/12:00am 9.2 SSE 2 3 1027.4 - 0.2 - - - - - - -
 
Date/Time
EST
Temp

°C
Wind Pressure Rain
since 9am
mm
Weather Cloud Vis
km
Sea
Height
m
Swell
Dir
 
Speed
knots
Gust
knots
hPa Trend Height
m
Period
s
Dir
19/11:30pm 9.2 SSE 6 9 1027.5 - 0.2 - - - - - - -
19/11:00pm 9.4 SSE 6 9 1027.6 - 0.2 - - - - - - -
19/10:30pm 8.8 S 5 6 1027.7 - 0.2 - - - - - - -
19/10:00pm 8.1 S 4 4 1027.7 - 0.2 - - - - - - -
19/09:30pm 8.2 S 3 4 1027.6 - 0.2 - - - - - - -
19/09:00pm 9.1 SSE 3 5 1027.5 - 0.2 - - - - - - -
19/08:30pm 8.4 SE 3 4 1027.5 - 0.2 - - - - - - -
19/08:00pm 8.3 SSE 5 6 1027.3 - 0.2 - - - - - - -
19/07:30pm 9.4 SSE 7 10 1027.2 - 0.2 - - - - - - -
19/07:00pm 9.8 SSE 5 7 1027.0 - 0.2 - - - - - - -
19/06:30pm 9.9 SSE 3 5 1026.7 - 0.2 - - - - - - -
19/06:00pm 10.6 S 7 10 1026.4 - 0.2 - - - - - - -
19/05:30pm 10.5 S 5 8 1026.1 - 0.2 - - - - - - -
19/05:00pm 11.2 S 7 10 1025.9 - 0.2 - - - - - - -
19/04:30pm 12.4 S 8 12 1025.8 - 0.0 - - - - - - -

Other Formats:

Comma delimited format used in spreadsheet applications
http://www.bom.gov.au/fwo/IDV60701/IDV60701.95816.axf

JavaScript Object Notation format (JSON) in row-major order
http://www.bom.gov.au/fwo/IDV60701/IDV60701.95816.json